sensor_id;sensor_type;location;lat;lon;timestamp;pressure;altitude;pressure_sealevel;temperature;humidity
6150;BME280;3106;42.670;23.318;2022-08-24T10:53:19;94290.63;;;27.60;60.94
6150;BME280;3106;42.670;23.318;2022-08-24T10:56:06;94262.94;;;27.85;60.07
6150;BME280;3106;42.670;23.318;2022-08-24T10:58:44;94263.44;;;28.55;57.88
6150;BME280;3106;42.670;23.318;2022-08-24T11:01:21;94274.13;;;29.07;54.96
6150;BME280;3106;42.670;23.318;2022-08-24T11:03:53;94224.97;;;29.15;54.81
6150;BME280;3106;42.670;23.318;2022-08-24T11:37:37;94284.56;;;29.36;56.29
6150;BME280;3106;42.670;23.318;2022-08-24T11:40:07;94239.38;;;29.51;55.15
6150;BME280;3106;42.670;23.318;2022-08-24T11:42:46;94260.56;;;30.01;55.39
6150;BME280;3106;42.670;23.318;2022-08-24T11:45:23;94283.38;;;29.28;55.71
6150;BME280;3106;42.670;23.318;2022-08-24T11:48:03;94247.69;;;28.83;57.45
6150;BME280;3106;42.670;23.318;2022-08-24T11:50:37;94259.19;;;28.54;59.29
6150;BME280;3106;42.670;23.318;2022-08-24T11:53:23;94229.38;;;28.17;59.67
6150;BME280;3106;42.670;23.318;2022-08-24T11:56:08;94197.81;;;27.46;64.43
6150;BME280;3106;42.670;23.318;2022-08-24T11:58:54;94215.00;;;27.29;66.72
6150;BME280;3106;42.670;23.318;2022-08-24T12:01:33;94199.22;;;27.11;67.95
6150;BME280;3106;42.670;23.318;2022-08-24T12:04:33;94243.34;;;27.17;68.95
6150;BME280;3106;42.670;23.318;2022-08-24T12:07:12;94192.84;;;26.84;69.25
6150;BME280;3106;42.670;23.318;2022-08-24T12:09:55;94241.53;;;27.23;68.94
6150;BME280;3106;42.670;23.318;2022-08-24T12:12:31;94265.38;;;27.83;68.00
6150;BME280;3106;42.670;23.318;2022-08-24T12:15:09;94220.50;;;27.38;66.53
6150;BME280;3106;42.670;23.318;2022-08-24T12:17:49;94192.84;;;27.23;66.06
6150;BME280;3106;42.670;23.318;2022-08-24T12:39:09;94235.09;;;26.65;70.09
6150;BME280;3106;42.670;23.318;2022-08-24T15:04:02;94227.94;;;25.44;75.32
6150;BME280;3106;42.670;23.318;2022-08-24T15:06:41;94222.00;;;25.46;76.40
6150;BME280;3106;42.670;23.318;2022-08-24T15:09:20;94249.59;;;25.51;77.04
6150;BME280;3106;42.670;23.318;2022-08-24T15:11:49;94202.31;;;25.13;77.44
6150;BME280;3106;42.670;23.318;2022-08-24T15:43:58;94228.34;;;24.68;79.47
6150;BME280;3106;42.670;23.318;2022-08-24T15:46:31;94264.25;;;24.82;80.65
6150;BME280;3106;42.670;23.318;2022-08-24T15:49:03;94277.94;;;24.95;81.24
6150;BME280;3106;42.670;23.318;2022-08-24T15:52:07;94230.09;;;24.62;80.92
6150;BME280;3106;42.670;23.318;2022-08-24T15:54:57;94209.94;;;24.56;81.15
6150;BME280;3106;42.670;23.318;2022-08-24T15:57:41;94232.94;;;24.71;81.84
6150;BME280;3106;42.670;23.318;2022-08-24T16:03:52;94290.84;;;25.07;81.51
6150;BME280;3106;42.670;23.318;2022-08-24T16:06:35;94257.69;;;24.92;81.57
6150;BME280;3106;42.670;23.318;2022-08-24T16:09:33;94236.53;;;24.68;82.13
6150;BME280;3106;42.670;23.318;2022-08-24T16:12:20;94245.38;;;24.60;82.95
6150;BME280;3106;42.670;23.318;2022-08-24T16:15:14;94296.06;;;24.76;83.98
6150;BME280;3106;42.670;23.318;2022-08-24T16:17:48;94279.28;;;24.62;83.84
6150;BME280;3106;42.670;23.318;2022-08-24T16:20:33;94274.63;;;24.47;84.45
6150;BME280;3106;42.670;23.318;2022-08-24T16:23:03;94272.09;;;24.40;85.05
6150;BME280;3106;42.670;23.318;2022-08-24T16:25:32;94228.81;;;24.10;84.70
6150;BME280;3106;42.670;23.318;2022-08-24T16:28:05;94289.00;;;24.51;84.62
6150;BME280;3106;42.670;23.318;2022-08-24T16:30:48;94259.09;;;24.44;84.65
6150;BME280;3106;42.670;23.318;2022-08-24T16:33:39;94248.56;;;24.30;84.29
6150;BME280;3106;42.670;23.318;2022-08-24T16:36:28;94295.03;;;24.58;84.50
6150;BME280;3106;42.670;23.318;2022-08-24T16:39:11;94283.84;;;24.53;84.75
6150;BME280;3106;42.670;23.318;2022-08-24T16:41:57;94265.44;;;24.41;84.54
6150;BME280;3106;42.670;23.318;2022-08-24T16:44:41;94259.44;;;24.17;86.00
6150;BME280;3106;42.670;23.318;2022-08-24T16:47:09;94242.66;;;24.03;86.66
6150;BME280;3106;42.670;23.318;2022-08-24T16:49:50;94253.03;;;23.79;86.92
6150;BME280;3106;42.670;23.318;2022-08-24T17:18:48;94314.63;;;23.48;91.64
6150;BME280;3106;42.670;23.318;2022-08-24T17:21:23;94284.06;;;23.21;91.38
6150;BME280;3106;42.670;23.318;2022-08-24T17:29:15;94298.94;;;23.36;90.69
6150;BME280;3106;42.670;23.318;2022-08-24T17:32:42;94334.41;;;23.52;90.69
6150;BME280;3106;42.670;23.318;2022-08-24T18:23:20;94362.69;;;23.07;92.28
6150;BME280;3106;42.670;23.318;2022-08-24T18:28:40;94341.25;;;22.90;92.25
6150;BME280;3106;42.670;23.318;2022-08-24T18:31:23;94384.75;;;23.16;92.61
6150;BME280;3106;42.670;23.318;2022-08-24T18:34:05;94322.66;;;22.65;93.77
6150;BME280;3106;42.670;23.318;2022-08-24T20:09:18;94416.88;;;21.74;100.00
6150;BME280;3106;42.670;23.318;2022-08-24T20:11:52;94389.56;;;21.55;100.00
6150;BME280;3106;42.670;23.318;2022-08-24T20:14:21;94407.34;;;21.63;100.00
6150;BME280;3106;42.670;23.318;2022-08-24T20:16:49;94404.63;;;21.59;100.00
6150;BME280;3106;42.670;23.318;2022-08-24T20:19:16;94416.19;;;21.70;100.00
6150;BME280;3106;42.670;23.318;2022-08-24T20:21:45;94417.88;;;21.61;100.00
6150;BME280;3106;42.670;23.318;2022-08-24T20:24:13;94411.00;;;21.49;100.00
6150;BME280;3106;42.670;23.318;2022-08-24T20:26:43;94400.97;;;21.43;100.00
6150;BME280;3106;42.670;23.318;2022-08-24T20:29:11;94374.25;;;21.12;100.00
6150;BME280;3106;42.670;23.318;2022-08-24T20:31:40;94341.06;;;20.94;100.00
6150;BME280;3106;42.670;23.318;2022-08-24T20:34:13;94371.97;;;21.07;100.00
6150;BME280;3106;42.670;23.318;2022-08-24T20:36:43;94368.09;;;21.08;100.00
6150;BME280;3106;42.670;23.318;2022-08-24T20:39:13;94379.94;;;21.21;100.00
6150;BME280;3106;42.670;23.318;2022-08-24T20:41:43;94385.47;;;21.14;100.00
6150;BME280;3106;42.670;23.318;2022-08-24T20:44:10;94397.88;;;21.15;100.00
6150;BME280;3106;42.670;23.318;2022-08-24T20:46:38;94416.72;;;21.29;100.00
6150;BME280;3106;42.670;23.318;2022-08-24T20:49:07;94418.25;;;21.30;100.00
6150;BME280;3106;42.670;23.318;2022-08-24T20:51:35;94406.31;;;21.24;100.00
6150;BME280;3106;42.670;23.318;2022-08-24T20:54:02;94378.84;;;21.15;100.00
6150;BME280;3106;42.670;23.318;2022-08-24T20:56:31;94413.09;;;21.39;100.00
6150;BME280;3106;42.670;23.318;2022-08-24T20:59:02;94393.13;;;21.22;100.00
6150;BME280;3106;42.670;23.318;2022-08-24T21:01:30;94407.66;;;21.39;100.00
6150;BME280;3106;42.670;23.318;2022-08-24T21:03:57;94393.38;;;21.31;100.00
6150;BME280;3106;42.670;23.318;2022-08-24T21:06:25;94356.03;;;21.09;100.00
6150;BME280;3106;42.670;23.318;2022-08-24T21:08:52;94395.31;;;21.31;100.00
6150;BME280;3106;42.670;23.318;2022-08-24T21:11:20;94392.69;;;21.27;100.00
6150;BME280;3106;42.670;23.318;2022-08-24T21:13:47;94403.88;;;21.33;100.00
6150;BME280;3106;42.670;23.318;2022-08-24T21:16:15;94403.09;;;21.32;100.00
6150;BME280;3106;42.670;23.318;2022-08-24T21:18:43;94367.63;;;21.13;100.00
6150;BME280;3106;42.670;23.318;2022-08-24T21:21:12;94387.38;;;21.17;100.00
6150;BME280;3106;42.670;23.318;2022-08-24T21:23:40;94369.75;;;20.98;100.00
6150;BME280;3106;42.670;23.318;2022-08-24T21:26:11;94368.34;;;20.87;100.00
6150;BME280;3106;42.670;23.318;2022-08-24T21:28:42;94427.75;;;21.18;100.00
6150;BME280;3106;42.670;23.318;2022-08-24T21:31:09;94408.53;;;21.02;100.00
6150;BME280;3106;42.670;23.318;2022-08-24T21:33:39;94396.97;;;20.95;100.00
6150;BME280;3106;42.670;23.318;2022-08-24T21:36:38;94435.09;;;21.21;100.00
6150;BME280;3106;42.670;23.318;2022-08-24T21:39:06;94364.50;;;20.81;100.00
6150;BME280;3106;42.670;23.318;2022-08-24T21:41:34;94373.78;;;20.87;100.00
6150;BME280;3106;42.670;23.318;2022-08-24T21:44:02;94423.81;;;21.23;100.00
6150;BME280;3106;42.670;23.318;2022-08-24T21:46:30;94415.47;;;21.07;100.00
6150;BME280;3106;42.670;23.318;2022-08-24T21:48:59;94408.63;;;20.95;100.00
6150;BME280;3106;42.670;23.318;2022-08-24T21:51:27;94406.75;;;20.89;100.00
6150;BME280;3106;42.670;23.318;2022-08-24T21:53:54;94410.50;;;21.02;100.00
6150;BME280;3106;42.670;23.318;2022-08-24T21:56:22;94392.31;;;20.95;100.00
6150;BME280;3106;42.670;23.318;2022-08-24T21:58:50;94399.63;;;21.02;100.00
6150;BME280;3106;42.670;23.318;2022-08-24T22:01:17;94423.16;;;21.15;100.00
6150;BME280;3106;42.670;23.318;2022-08-24T22:03:45;94413.00;;;21.19;100.00
6150;BME280;3106;42.670;23.318;2022-08-24T22:06:13;94426.84;;;21.28;100.00
6150;BME280;3106;42.670;23.318;2022-08-24T22:08:41;94416.81;;;21.22;100.00
6150;BME280;3106;42.670;23.318;2022-08-24T22:11:09;94415.38;;;21.14;100.00
6150;BME280;3106;42.670;23.318;2022-08-24T22:13:37;94389.22;;;20.97;100.00
6150;BME280;3106;42.670;23.318;2022-08-24T22:16:06;94366.34;;;20.91;100.00
6150;BME280;3106;42.670;23.318;2022-08-24T22:18:33;94416.00;;;21.25;100.00
6150;BME280;3106;42.670;23.318;2022-08-24T22:21:04;94411.28;;;21.29;100.00
6150;BME280;3106;42.670;23.318;2022-08-24T22:23:33;94356.59;;;20.97;100.00
6150;BME280;3106;42.670;23.318;2022-08-24T22:26:00;94394.34;;;21.18;100.00
6150;BME280;3106;42.670;23.318;2022-08-24T22:28:39;94388.91;;;21.18;100.00
6150;BME280;3106;42.670;23.318;2022-08-24T22:31:14;94385.00;;;21.19;100.00
6150;BME280;3106;42.670;23.318;2022-08-24T22:33:42;94359.59;;;21.02;100.00
6150;BME280;3106;42.670;23.318;2022-08-24T22:36:09;94389.28;;;21.20;100.00
6150;BME280;3106;42.670;23.318;2022-08-24T22:38:38;94376.16;;;21.11;100.00
6150;BME280;3106;42.670;23.318;2022-08-24T22:41:06;94335.03;;;20.79;100.00
6150;BME280;3106;42.670;23.318;2022-08-24T22:43:34;94365.03;;;21.02;100.00
6150;BME280;3106;42.670;23.318;2022-08-24T22:46:18;94331.13;;;20.84;100.00
6150;BME280;3106;42.670;23.318;2022-08-24T22:48:46;94336.53;;;20.84;100.00
6150;BME280;3106;42.670;23.318;2022-08-24T22:51:14;94368.91;;;21.05;100.00
6150;BME280;3106;42.670;23.318;2022-08-24T22:53:42;94342.78;;;20.81;100.00
6150;BME280;3106;42.670;23.318;2022-08-24T22:56:14;94335.78;;;20.80;100.00
6150;BME280;3106;42.670;23.318;2022-08-24T22:58:41;94366.69;;;20.96;100.00
6150;BME280;3106;42.670;23.318;2022-08-24T23:01:08;94331.13;;;20.84;100.00
6150;BME280;3106;42.670;23.318;2022-08-24T23:03:35;94315.09;;;20.59;100.00
6150;BME280;3106;42.670;23.318;2022-08-24T23:06:02;94340.50;;;20.76;100.00
6150;BME280;3106;42.670;23.318;2022-08-24T23:08:30;94315.13;;;20.56;100.00
6150;BME280;3106;42.670;23.318;2022-08-24T23:10:59;94331.38;;;20.63;100.00
6150;BME280;3106;42.670;23.318;2022-08-24T23:13:26;94352.22;;;20.69;100.00
6150;BME280;3106;42.670;23.318;2022-08-24T23:15:53;94337.56;;;20.63;100.00
6150;BME280;3106;42.670;23.318;2022-08-24T23:18:20;94340.69;;;20.62;100.00
6150;BME280;3106;42.670;23.318;2022-08-24T23:21:21;94318.16;;;20.65;100.00
6150;BME280;3106;42.670;23.318;2022-08-24T23:23:48;94346.22;;;20.88;100.00
6150;BME280;3106;42.670;23.318;2022-08-24T23:26:20;94321.06;;;20.77;100.00
6150;BME280;3106;42.670;23.318;2022-08-24T23:28:48;94329.91;;;20.88;100.00
6150;BME280;3106;42.670;23.318;2022-08-24T23:31:17;94332.91;;;20.94;100.00
6150;BME280;3106;42.670;23.318;2022-08-24T23:33:46;94308.19;;;20.85;100.00
6150;BME280;3106;42.670;23.318;2022-08-24T23:36:17;94323.16;;;21.00;100.00
6150;BME280;3106;42.670;23.318;2022-08-24T23:38:48;94318.59;;;20.90;100.00
6150;BME280;3106;42.670;23.318;2022-08-24T23:41:20;94346.69;;;21.10;100.00
6150;BME280;3106;42.670;23.318;2022-08-24T23:57:29;94300.50;;;20.76;100.00
